Date,TemperatureHighF,TemperatureAvgF,TemperatureLowF,DewpointHighF,DewpointAvgF,DewpointLowF,HumidityHigh,HumidityAvg,HumidityLow,PressureMaxIn,PressureMinIn,WindSpeedMaxMPH,WindSpeedAvgMPH,GustSpeedMaxMPH,PrecipitationSumIn
2013-1-1,37.9,34.2,30.7,36.1,32.4,29.2,95,93,86,30.44,30.30,0,0,0,0.00
2013-1-2,42.4,34.2,29.5,38.9,31.3,-12.5,95,90,14,30.30,30.12,15,0,15,0.01
2013-1-3,47.1,34.2,27.5,39.6,31.6,25.5,94,90,64,30.12,29.24,16,0,16,0.17
2013-1-4,49.1,41.9,38.8,43.6,40.0,36.7,95,93,70,30.21,30.06,16,0,16,0.28
2013-1-5,49.8,42.2,40.1,41.8,40.1,37.7,95,92,71,30.12,29.97,50,1,50,0.41
2013-1-6,52.5,41.2,39.0,41.9,39.5,37.5,95,94,67,30.03,29.88,6,1,6,0.72
2013-1-7,54.1,40.6,37.9,42.5,39.0,36.6,95,94,63,30.03,29.71,5,0,5,1.18
2013-1-8,52.2,40.2,37.8,45.8,38.6,35.9,95,94,77,30.06,29.53,6,1,6,1.57
2013-1-9,51.6,42.3,36.3,45.8,39.2,32.5,95,89,66,29.80,29.53,4,0,4,0.05
2013-1-10,42.6,36.7,29.1,35.3,29.6,18.8,89,76,48,30.06,29.83,4,0,4,0.03
2013-1-11,48.9,30.2,25.0,35.6,19.7,16.1,77,65,51,30.27,30.06,4,0,4,0.00
2013-1-12,40.1,27.5,22.8,24.6,21.1,17.8,84,77,57,30.36,30.27,1,0,1,0.00
2013-1-13,39.7,27.9,22.6,26.7,21.4,18.3,85,77,53,30.42,30.36,15,0,15,0.00
2013-1-14,40.8,32.1,27.3,32.7,28.8,20.4,93,88,63,30.50,30.39,4,0,4,0.09
2013-1-15,74.3,36.9,32.5,70.8,30.7,25.1,95,80,52,30.62,30.50,0,0,0,0.00
2013-1-16,46.2,35.5,29.7,32.7,27.2,23.7,88,73,52,30.62,30.44,14,0,14,0.00
2013-1-17,50.2,33.2,27.3,36.7,29.8,24.5,92,87,55,30.48,27.76,14,0,14,0.00
2013-1-18,44.6,34.6,28.2,40.3,31.1,25.9,95,87,64,30.27,30.18,0,0,0,0.01
2013-1-19,43.9,36.0,30.9,37.1,32.9,20.8,95,89,48,30.33,30.27,0,0,0,0.00
2013-1-20,47.1,36.4,30.4,39.7,34.0,28.1,95,91,66,30.33,30.21,0,0,0,0.00
2013-1-21,45.7,34.7,31.6,36.0,32.5,30.2,95,92,65,30.21,30.06,2,0,2,0.00
2013-1-22,46.4,36.1,30.7,35.7,32.5,29.2,95,87,62,30.06,29.83,0,0,0,0.00
2013-1-23,43.5,40.5,37.9,41.4,37.2,32.2,94,88,78,29.97,29.74,10,0,10,0.72
2013-1-24,47.8,41.8,39.4,42.3,37.9,32.1,95,87,60,30.09,29.91,16,1,16,0.35
2013-1-25,53.8,43.2,40.6,42.8,38.8,36.3,95,85,63,29.97,28.05,5,0,5,0.20
2013-1-26,47.5,41.6,39.2,40.4,36.1,33.9,91,81,66,29.91,29.77,13,0,13,0.07
2013-1-27,49.3,39.8,38.3,39.6,37.4,35.2,94,91,63,29.91,26.87,16,0,16,0.30
2013-1-28,42.6,40.3,37.9,37.6,35.7,30.3,93,84,62,29.91,29.85,6,0,6,0.09
2013-1-29,44.2,41.6,39.6,39.5,36.7,33.0,94,83,71,30.21,29.91,5,0,5,0.10
2013-1-30,44.8,42.8,40.8,43.2,39.7,38.4,94,89,82,30.27,30.21,0,0,0,0.04
2013-1-31,56.3,44.7,41.9,49.5,42.4,38.6,94,91,78,30.27,30.18,16,0,16,0.20
2013-2-1,51.4,45.3,39.9,42.7,39.8,37.2,91,81,64,30.36,30.24,0,0,1,0.00
2013-2-2,45.1,38.9,32.4,39.8,35.8,30.1,94,89,76,30.33,30.15,0,0,0,0.00
2013-2-3,45.7,42.1,39.7,40.7,38.9,37.0,93,89,75,30.21,30.06,3,0,7,0.16
2013-2-4,48.2,44.8,42.4,44.1,40.7,38.4,93,86,71,30.09,29.77,5,0,7,0.04
2013-2-5,54.3,44.9,42.1,44.2,40.8,38.9,92,86,65,29.77,29.68,3,0,7,0.38
2013-2-6,52.5,43.6,42.1,43.0,39.5,33.7,92,86,62,29.91,29.65,9,2,12,0.31
2013-2-7,50.7,43.1,34.7,37.0,33.8,17.6,87,71,43,30.12,29.65,9,1,12,0.01
2013-2-8,47.5,39.5,32.0,36.9,31.7,27.4,93,75,50,30.21,30.12,1,0,4,0.00
2013-2-9,48.7,41.6,36.9,36.0,34.4,27.4,84,76,48,30.27,30.18,0,0,1,0.00
2013-2-10,48.2,39.0,32.0,36.6,32.8,29.0,91,79,54,30.30,30.24,0,0,0,0.00
2013-2-11,50.4,42.2,40.5,40.6,38.7,-4.8,92,88,13,30.24,30.24,2,0,2,0.10
2013-2-12,51.6,44.3,41.7,44.3,40.8,38.7,94,88,65,30.27,28.35,0,0,0,0.01
2013-2-13,54.0,44.9,40.3,40.2,37.2,33.6,90,76,51,30.39,30.12,0,0,0,0.00
2013-2-14,47.7,44.1,41.9,41.1,38.5,35.9,91,81,71,30.50,30.39,4,0,4,0.07
2013-2-15,113.7,44.3,37.6,99.9,37.4,34.2,91,78,42,30.50,27.76,0,0,0,0.00
2013-2-16,61.5,46.1,38.7,44.7,38.4,31.7,92,76,45,30.06,29.97,5,0,5,0.14
2013-2-17,55.8,42.1,37.2,35.5,32.3,26.2,87,70,45,30.12,30.03,0,0,0,0.00
2013-2-18,44.1,40.5,39.2,36.7,34.8,32.9,87,80,67,30.03,29.68,7,1,7,0.16
2013-2-19,48.4,41.6,35.4,35.5,32.4,25.3,84,71,42,29.91,29.68,5,0,5,0.00
2013-2-20,51.8,37.9,32.9,38.8,34.1,29.5,92,86,60,29.94,29.88,6,0,6,0.26
2013-2-21,51.8,40.7,38.5,41.2,37.7,35.4,93,89,58,29.91,29.85,6,0,6,0.28
2013-2-22,52.7,40.6,35.4,43.9,36.3,28.5,93,85,56,29.88,29.47,15,1,15,1.39
2013-2-23,48.7,41.7,34.3,43.2,31.2,21.7,90,69,37,30.24,29.71,16,1,16,0.00
2013-2-24,55.6,40.4,39.0,38.7,37.3,34.5,92,89,56,30.24,27.17,9,1,9,0.72
2013-2-25,50.2,42.6,36.0,40.7,32.9,22.3,92,71,39,30.15,29.65,8,1,8,0.48
2013-2-26,48.4,39.5,34.3,37.0,34.2,30.0,90,82,52,30.24,30.06,10,1,10,0.03
2013-2-27,53.1,40.7,34.3,44.9,34.5,30.9,92,80,53,30.24,30.06,9,0,9,0.09
2013-2-28,51.4,40.8,36.9,41.7,37.5,32.9,92,88,58,30.21,30.12,16,1,16,0.13
2013-3-1,55.4,49.0,43.5,48.7,46.8,41.4,93,92,75,30.15,30.12,4,0,4,0.52
2013-3-2,62.8,47.4,44.8,50.0,45.5,42.9,94,93,55,30.12,29.91,16,1,16,0.88
2013-3-3,44.8,44.8,44.8,42.9,42.9,42.9,93,93,93,29.91,29.91,1,1,2,20.30
2013-3-4,44.8,44.8,44.8,42.9,42.9,42.9,93,93,93,29.91,29.91,1,1,2,20.37
2013-3-5,44.8,44.8,44.8,42.9,42.9,42.9,93,93,93,29.91,29.91,1,1,2,20.23
2013-3-6,44.8,44.8,44.8,42.9,42.9,42.9,93,93,93,29.91,29.91,1,1,2,20.37
2013-3-7,44.8,44.8,44.8,42.9,42.9,42.9,93,93,93,29.91,29.91,1,1,2,20.16
2013-3-8,44.8,44.8,44.8,42.9,42.9,42.9,93,93,93,29.91,29.91,1,1,2,14.28
2013-3-9,44.8,44.8,44.8,42.9,42.9,42.9,93,93,93,29.91,29.91,1,1,2,20.23
2013-3-10,50.9,45.2,42.1,42.9,40.3,35.3,93,83,61,30.36,29.91,1,0,2,0.01
2013-3-11,62.2,46.6,41.5,39.2,36.1,28.2,86,69,33,30.36,30.03,13,0,13,0.04
2013-3-12,60.8,46.5,40.5,48.7,44.0,37.5,93,91,86,30.06,29.88,9,1,9,0.07
2013-3-13,52.2,50.0,48.9,49.6,47.5,21.6,94,91,32,30.06,29.91,6,0,6,0.13
2013-3-14,81.3,50.4,12.7,78.4,47.7,8.0,95,90,51,30.03,29.91,6,0,6,0.24
2013-3-15,81.3,54.3,45.7,78.4,50.0,-7.4,94,86,66,30.09,30.00,5,0,5,0.26
2013-3-16,62.8,46.3,39.9,46.3,39.8,30.6,91,79,44,30.00,29.71,12,1,12,0.23
2013-3-17,37.2,37.2,37.2,34.3,34.3,34.3,89,89,89,30.21,30.21,0,0,0,0.00
2013-3-18,56.1,41.2,32.0,39.2,27.2,-31.6,82,59,5,30.15,29.94,6,0,6,0.07
2013-3-19,55.0,42.8,34.5,37.8,30.2,22.1,86,64,31,30.15,29.47,26,6,26,0.07
2013-3-20,71.1,46.0,37.8,53.2,38.4,29.3,91,78,31,29.80,29.20,6,0,6,0.07
2013-3-21,58.5,43.2,33.4,40.8,26.5,10.4,83,55,20,30.06,29.53,1,0,1,0.07
2013-3-22,55.8,39.2,19.8,33.0,28.1,0.8,84,66,36,30.30,30.06,1,0,1,0.06
2013-3-23,64.2,42.4,32.5,32.0,26.9,13.3,85,58,20,30.33,26.58,1,0,1,0.03
2013-3-24,63.0,45.6,37.4,32.9,25.2,14.0,69,47,20,30.24,30.06,3,0,3,0.03
2013-3-25,68.0,49.5,41.0,36.6,27.6,22.0,61,44,24,30.06,26.58,6,0,6,0.03
2013-3-26,71.1,49.5,38.3,35.8,31.3,25.0,78,52,25,29.94,29.88,0,0,0,0.01
2013-3-27,70.3,51.8,38.7,45.2,35.7,29.2,86,57,28,29.91,29.85,1,0,1,0.03
2013-3-28,76.6,55.4,45.5,44.0,37.3,29.7,72,53,27,30.06,29.91,4,0,4,0.03
2013-3-29,70.7,54.0,43.7,46.2,39.4,35.0,83,60,34,30.18,30.06,2,0,2,0.10
2013-3-30,72.5,53.9,39.9,53.7,38.6,31.7,88,59,29,30.71,26.87,16,0,16,0.09
2013-3-31,77.5,56.1,39.9,51.2,37.4,25.8,84,54,20,30.00,29.83,0,0,0,0.04
2013-4-1,81.7,57.8,43.7,51.2,41.9,36.0,83,59,26,30.03,29.85,5,0,5,0.04
2013-4-2,62.4,54.6,49.1,45.3,41.9,38.4,76,63,45,30.09,30.03,6,1,6,0.03
2013-4-3,73.9,54.1,44.6,43.0,39.6,35.6,80,60,33,31.01,25.69,1,0,1,0.01
2013-4-4,64.4,53.0,50.0,50.9,44.6,39.4,92,74,42,29.88,29.50,4,0,4,0.03
2013-4-5,63.0,51.7,48.4,50.2,47.9,45.3,95,87,56,30.71,29.56,7,0,7,0.13
2013-4-6,69.3,51.4,45.1,46.4,41.0,26.4,92,72,26,30.12,29.56,8,1,8,0.26
2013-4-7,55.2,47.1,43.2,42.6,39.7,35.4,86,76,52,29.77,29.47,5,0,5,0.31
2013-4-8,71.6,50.9,45.5,46.8,40.3,32.4,85,69,31,30.15,27.46,16,0,16,0.28
2013-4-9,59.4,49.2,45.9,44.7,42.4,39.7,92,78,55,30.24,25.40,7,1,7,0.26
2013-4-10,65.1,51.9,46.0,52.8,43.0,31.7,94,75,31,30.09,27.17,15,1,15,0.31
2013-4-11,68.4,51.2,41.5,45.6,34.4,20.5,89,56,20,30.18,30.06,6,1,6,0.21
2013-4-12,58.8,42.1,38.3,40.8,36.7,33.7,94,82,47,30.09,29.50,16,0,16,0.18
2013-4-13,59.7,43.8,34.3,40.4,33.7,28.3,94,69,37,30.42,29.24,16,0,16,0.20
2013-4-14,64.4,46.5,37.8,41.7,34.1,25.2,89,65,32,29.91,29.83,4,0,4,0.21
2013-4-15,69.4,50.1,41.5,45.7,36.5,25.9,90,63,28,30.09,29.83,5,1,5,0.18
2013-4-16,74.7,52.8,38.5,42.0,29.2,13.4,79,45,20,30.30,28.05,2,0,2,0.14
2013-4-17,69.4,53.5,42.3,41.3,35.0,26.7,72,52,27,30.42,30.27,7,0,7,0.10
2013-4-18,52.2,47.0,43.7,45.8,43.4,40.1,93,87,73,30.33,30.09,5,0,5,0.10
2013-4-19,69.6,50.6,44.1,50.5,45.8,36.5,95,85,38,30.09,29.97,16,0,16,0.09
2013-4-20,69.3,53.4,45.5,49.3,41.7,34.9,93,67,38,30.12,30.03,25,0,25,0.10
2013-4-21,66.7,48.3,40.1,44.8,37.5,27.1,87,68,31,30.33,30.09,14,1,14,0.07
2013-4-22,71.8,52.2,34.0,42.7,28.2,14.9,85,46,20,30.48,30.33,2,0,2,0.06
2013-4-23,74.3,54.1,40.5,41.9,32.9,26.2,78,48,22,30.33,30.18,2,0,2,0.04
2013-4-24,80.4,58.5,40.5,44.0,36.8,29.8,83,49,21,30.24,29.97,16,0,16,0.03
2013-4-25,80.1,59.6,43.3,46.0,39.3,30.2,83,51,20,30.03,29.94,1,0,1,0.03
2013-4-26,73.9,59.8,46.6,48.7,40.9,30.6,81,52,28,30.15,30.03,2,0,3,0.03
2013-4-27,67.5,53.3,46.4,50.9,44.4,39.2,86,72,48,30.09,30.00,1,0,1,0.04
2013-4-28,70.0,52.1,40.6,52.7,38.1,26.2,89,63,25,30.09,29.80,1,0,1,0.03
2013-4-29,60.6,51.1,44.4,41.7,29.0,15.8,79,45,20,30.00,29.77,16,4,16,0.03
2013-4-30,70.9,50.9,36.0,37.7,28.7,17.6,77,45,20,30.36,27.76,5,0,5,0.01
2013-5-1,75.4,54.5,37.0,42.0,31.3,20.3,82,45,20,30.50,30.36,6,0,6,0.01
2013-5-2,72.3,56.3,43.9,44.8,38.1,28.1,78,53,26,30.48,29.53,16,0,16,0.01
2013-5-3,78.1,58.3,43.0,49.9,41.4,35.4,85,57,24,30.33,30.15,1,0,1,0.00
2013-5-4,87.3,65.0,46.0,54.4,40.6,30.2,84,46,20,30.18,29.91,0,0,0,0.00
2013-5-5,94.1,72.0,51.6,52.5,40.8,34.0,71,36,20,29.94,29.68,7,0,7,0.01
2013-5-6,94.3,72.9,55.0,51.2,42.1,36.1,65,36,20,29.77,27.17,0,0,0,0.00
2013-5-7,88.2,69.5,54.5,53.0,47.5,41.9,77,49,22,29.88,29.71,16,0,16,0.00
2013-5-8,83.7,64.5,53.6,53.6,47.9,42.0,80,58,27,30.03,29.85,4,0,4,0.00
2013-5-9,88.0,66.1,51.3,55.1,48.8,43.6,85,57,29,30.12,30.00,25,0,25,0.00
2013-5-10,88.0,68.2,52.9,57.5,49.6,45.0,85,55,30,31.21,30.00,16,0,16,0.04
2013-5-11,86.2,66.2,-22.4,56.8,50.5,-35.1,91,60,31,30.71,28.05,17,0,17,0.31
2013-5-12,76.1,61.9,57.4,61.8,56.7,53.6,94,84,56,29.97,29.88,0,0,0,0.62
2013-5-13,73.4,58.4,50.7,57.8,50.6,42.7,92,76,48,30.06,29.80,6,0,6,0.16
2013-5-14,81.9,58.3,48.6,46.2,39.0,26.9,80,54,20,30.12,30.00,4,0,4,0.02
2013-5-15,74.5,59.9,49.1,48.5,42.0,35.4,82,54,29,30.06,29.24,4,0,4,0.03
2013-5-16,74.8,60.1,52.7,56.3,47.1,41.1,89,65,33,29.94,29.80,1,0,1,0.06
2013-5-17,76.8,57.6,50.4,56.7,50.2,46.3,90,78,43,29.94,29.83,1,0,1,0.10
2013-5-18,73.0,57.7,52.2,54.9,48.6,41.7,92,74,40,30.18,29.94,16,0,16,0.13
2013-5-19,77.7,59.4,51.3,49.9,45.3,37.9,83,62,30,30.30,27.17,15,0,15,0.00
2013-5-20,79.3,60.6,47.8,57.4,45.4,40.7,89,60,30,30.27,29.80,0,0,0,0.01
2013-5-21,56.8,51.0,48.6,53.6,46.9,42.7,92,86,66,29.83,29.68,0,0,0,0.34
2013-5-22,74.1,56.6,48.6,53.2,44.7,36.6,93,67,36,29.85,29.74,0,0,1,0.11
2013-5-23,80.6,57.6,43.9,53.8,43.0,35.1,93,62,28,29.91,29.85,5,0,5,0.21
2013-5-24,83.8,60.2,45.5,52.3,41.8,30.8,87,56,20,29.94,29.88,0,0,0,0.00
2013-5-25,71.6,55.6,47.3,56.9,44.6,39.3,86,68,35,29.94,29.91,6,0,6,0.04
2013-5-26,72.5,58.6,49.6,52.6,45.8,41.4,78,63,39,29.91,26.58,2,0,2,0.00
2013-5-27,73.2,57.7,54.1,54.5,49.9,43.7,91,77,42,29.85,29.62,8,0,8,0.33
2013-5-28,60.8,55.0,52.2,54.3,51.2,48.3,94,87,70,29.80,29.65,1,0,1,1.01
2013-5-29,63.5,54.7,50.5,55.1,50.3,47.9,94,86,66,29.83,29.59,16,0,16,0.35
2013-5-30,72.1,56.8,48.7,52.5,47.3,41.2,95,73,37,30.15,29.83,16,0,16,0.06
2013-5-31,81.3,60.4,49.5,54.3,44.7,36.4,90,61,25,30.27,30.15,0,0,0,0.00
2013-6-1,75.0,60.7,53.1,50.0,45.7,40.7,80,60,35,30.18,29.97,0,0,0,0.00
2013-6-2,80.8,62.8,49.3,56.7,46.6,40.2,88,58,26,30.00,28.94,16,0,16,0.00
2013-6-3,86.5,65.2,50.2,56.3,47.2,40.1,86,56,25,30.03,29.97,0,0,0,0.00
2013-6-4,88.2,69.1,51.3,55.6,47.6,39.7,84,50,21,30.06,29.94,1,0,1,0.00
2013-6-5,91.2,69.9,59.2,57.4,49.0,44.2,68,49,28,30.00,29.94,16,0,16,0.00
2013-6-6,89.1,71.3,39.4,62.0,49.0,29.0,78,48,26,29.97,29.88,0,0,0,0.00
2013-6-7,82.9,63.7,55.2,54.1,48.0,42.0,87,58,28,31.01,29.88,8,1,8,0.04
2013-6-8,78.6,61.4,53.2,55.1,46.8,40.5,80,60,30,30.71,30.00,15,0,15,0.00
2013-6-9,82.0,62.3,52.7,68.8,47.2,37.4,86,62,24,30.00,29.91,16,0,16,0.27
2013-6-10,83.8,63.8,48.0,54.6,44.6,-34.0,88,53,20,29.94,29.77,0,0,0,0.00
2013-6-11,80.6,61.0,51.6,48.5,43.7,39.0,89,55,31,30.00,29.80,1,0,1,0.09
2013-6-12,78.8,60.9,50.9,54.9,48.6,36.2,91,68,34,30.06,30.00,2,0,2,0.21
2013-6-13,84.6,64.1,46.8,59.7,45.6,34.4,90,56,20,30.06,30.03,0,0,0,0.00
2013-6-14,76.1,59.3,53.1,53.5,48.5,19.8,89,69,24,30.15,30.00,1,0,1,0.07
2013-6-15,86.7,67.4,48.9,59.0,48.1,40.9,89,54,27,30.00,27.17,0,0,0,0.00
2013-6-16,99.0,73.3,57.6,59.1,51.0,40.0,84,50,20,29.97,29.88,16,1,16,0.00
2013-6-17,95.0,72.1,61.0,56.8,49.5,42.4,68,48,22,29.97,28.35,50,4,50,0.00
2013-6-18,88.2,66.4,57.6,56.5,49.8,39.6,88,59,21,29.88,29.80,50,9,50,0.10
2013-6-19,82.0,63.7,54.7,55.4,50.0,44.6,83,63,32,29.85,26.58,4,0,4,0.00
2013-6-20,70.3,58.3,54.9,55.6,53.4,51.4,94,84,57,30.00,26.28,16,0,16,0.34
2013-6-21,80.4,62.1,53.1,53.6,51.3,45.9,95,71,35,30.06,29.97,5,0,5,0.01
2013-6-22,88.3,66.8,58.6,54.1,51.2,43.6,82,60,26,30.03,29.80,1,0,1,0.00
2013-6-23,85.3,67.5,54.3,58.4,52.9,47.9,88,61,35,29.91,29.53,1,0,1,0.10
2013-6-24,71.4,62.2,58.6,62.3,56.3,51.2,95,82,56,29.59,29.47,1,0,3,0.84
2013-6-25,77.0,63.8,56.7,58.0,53.4,48.0,91,71,36,29.71,28.05,7,0,7,0.02
2013-6-26,84.2,64.5,57.9,57.0,54.5,50.7,91,71,37,29.97,29.71,1,0,1,0.13
2013-6-27,72.3,64.6,59.4,61.7,57.2,54.2,91,77,59,30.12,29.94,10,0,0,0.01
2013-6-28,82.9,69.3,60.1,66.7,58.2,55.3,90,69,45,30.12,29.97,16,0,16,0.01
2013-6-29,100.9,81.0,63.7,68.9,59.0,53.2,84,52,24,30.00,29.88,0,0,0,0.00
2013-6-30,100.4,80.8,63.9,63.8,56.7,50.9,83,48,20,29.91,29.77,2,0,2,0.00
2013-7-1,104.9,84.0,69.6,61.8,56.1,49.0,61,41,20,29.88,29.80,3,0,3,0.00
2013-7-2,99.7,78.5,64.2,62.9,55.0,48.9,74,47,22,30.00,28.05,4,0,4,0.00
2013-7-3,98.6,73.9,59.2,56.8,50.4,39.1,77,48,20,30.06,29.91,1,0,1,0.00
2013-7-4,89.1,69.5,55.4,58.5,50.3,44.2,81,53,22,30.00,29.91,4,0,4,0.00
2013-7-5,93.6,70.9,55.8,56.5,50.6,41.1,81,53,21,29.94,29.83,2,0,2,0.00
2013-7-6,91.4,73.1,56.7,57.9,50.8,43.9,79,48,22,29.88,29.74,2,0,2,0.00
2013-7-7,89.2,73.4,61.0,57.5,54.0,42.8,80,54,26,29.83,29.77,17,0,17,0.00
2013-7-8,100.6,75.2,58.8,63.0,54.3,51.4,84,52,21,29.97,29.83,4,0,4,0.00
2013-7-9,98.4,77.1,59.4,63.9,55.4,50.0,84,51,24,30.00,29.88,4,0,4,0.00
2013-7-10,95.0,72.3,58.5,59.0,50.0,41.8,82,49,25,29.94,29.80,6,0,6,0.00
2013-7-11,89.4,68.7,56.7,50.3,43.5,30.3,74,43,20,29.97,29.83,7,0,7,0.00
2013-7-12,88.9,68.2,9.3,52.8,44.8,2.7,76,47,20,29.97,29.91,0,0,0,0.00
2013-7-13,94.3,70.6,53.1,53.7,47.4,41.3,81,48,20,30.12,29.97,5,0,5,0.03
2013-7-14,97.5,73.4,55.0,59.5,49.7,43.8,82,48,20,30.03,29.91,4,0,4,0.00
2013-7-15,92.1,72.4,56.1,55.0,46.0,34.9,78,44,20,30.00,29.83,2,0,2,0.00
2013-7-16,99.3,77.1,58.6,59.3,47.6,39.9,76,38,20,29.85,29.71,2,0,2,0.00
2013-7-17,96.8,77.2,64.4,60.8,52.6,47.2,70,44,25,30.09,29.77,6,0,6,0.00
2013-7-18,95.7,73.5,61.2,56.3,52.9,47.7,74,52,22,30.12,28.64,5,0,5,0.00
2013-7-19,98.6,75.7,60.1,61.8,55.2,48.9,81,53,24,30.06,25.69,17,0,17,0.00
2013-7-20,95.2,73.6,58.5,61.3,54.3,46.8,85,56,23,29.97,29.85,50,1,50,0.00
2013-7-21,98.6,73.3,57.0,57.2,53.3,48.6,84,54,24,29.88,25.99,2,0,2,0.00
2013-7-22,97.7,74.4,57.7,61.1,54.4,47.6,86,55,23,29.94,29.83,4,0,4,0.00
2013-7-23,97.7,75.9,59.4,61.6,53.6,45.5,85,51,20,29.97,29.85,1,0,1,0.00
2013-7-24,102.2,76.8,58.6,62.4,53.1,47.3,85,49,20,31.01,29.88,1,0,1,0.00
2013-7-25,100.0,75.4,57.2,59.0,53.0,43.9,82,51,20,30.00,29.91,2,0,2,0.00
2013-7-26,93.9,73.9,58.5,62.8,52.5,44.3,82,51,21,30.06,29.97,1,0,1,0.01
2013-7-27,91.0,70.5,57.7,60.6,50.1,41.4,82,51,20,30.03,29.88,50,0,50,0.00
2013-7-28,97.2,72.3,55.6,59.8,50.3,43.2,79,50,20,29.91,29.83,0,0,0,0.00
2013-7-29,95.5,73.7,58.3,60.6,52.6,44.6,82,52,20,29.91,29.83,16,0,16,0.00
2013-7-30,98.6,75.1,58.6,63.8,52.6,45.9,81,50,20,30.03,29.88,50,0,50,0.00
2013-7-31,96.3,75.3,60.1,59.5,54.0,49.1,78,51,25,30.00,29.88,25,0,25,0.00
2013-8-1,91.8,71.8,60.4,60.3,54.4,47.5,86,57,28,29.94,29.88,5,0,5,0.00
2013-8-2,72.7,62.7,59.7,58.0,55.1,52.5,89,77,56,30.06,29.94,6,0,6,0.06
2013-8-3,83.1,68.2,60.3,60.1,55.2,51.7,93,65,41,30.06,29.97,1,0,1,0.03
2013-8-4,92.1,72.9,63.9,64.0,56.0,50.8,85,59,28,29.97,29.85,0,0,0,0.00
2013-8-5,102.7,76.0,57.9,72.1,55.4,45.0,90,54,20,29.91,29.83,4,0,4,0.00
2013-8-6,96.8,75.9,57.7,59.1,53.3,47.7,84,50,24,29.91,29.83,1,0,1,0.00
2013-8-7,99.0,76.5,59.7,60.6,52.4,46.4,80,47,20,29.91,29.85,2,0,2,0.00
2013-8-8,97.2,76.3,59.7,60.1,54.4,50.0,84,50,23,29.91,29.83,1,0,1,0.00
2013-8-9,99.0,76.2,59.2,59.2,54.9,49.6,82,52,20,29.85,29.71,2,0,2,0.00
2013-8-10,95.9,74.3,62.6,60.2,54.3,47.6,71,53,22,29.88,29.74,5,0,5,0.00
2013-8-11,90.1,69.2,60.4,68.8,52.5,48.1,86,57,29,29.97,29.85,4,0,4,0.03
2013-8-12,95.2,72.7,61.2,59.0,53.5,45.1,74,55,21,29.97,29.91,5,0,5,0.00
2013-8-13,97.5,74.3,1.9,59.7,52.7,-3.1,79,51,21,30.00,29.83,5,0,5,0.00
2013-8-14,90.0,71.7,63.5,61.4,55.3,48.9,84,59,26,29.85,29.80,6,0,6,0.01
2013-8-15,84.7,68.4,63.5,63.7,60.7,57.3,89,77,45,29.91,29.83,7,0,7,0.03
2013-8-16,97.5,73.2,61.2,64.3,58.3,48.0,90,63,24,29.91,29.85,1,0,16,0.00
2013-8-17,93.6,73.2,66.0,60.7,56.7,51.4,80,58,25,29.97,29.88,3,0,3,0.00
2013-8-18,86.7,66.9,60.8,66.2,54.9,48.3,83,67,31,30.03,29.94,53,0,53,0.00
2013-8-19,85.5,69.1,60.4,56.5,51.8,43.8,84,58,25,30.03,29.94,1,0,1,0.00
2013-8-20,90.1,67.8,55.6,55.4,47.4,35.8,82,53,20,30.09,30.00,2,0,2,0.00
2013-8-21,95.2,74.1,53.8,56.3,47.2,40.4,79,41,20,30.00,29.85,0,0,0,0.00
2013-8-22,94.6,76.4,57.0,56.4,50.6,43.9,81,45,20,29.85,29.68,16,0,16,0.00
2013-8-23,89.2,70.1,61.0,58.1,52.5,48.2,87,56,32,29.80,29.71,6,0,6,0.01
2013-8-24,87.6,68.0,58.8,64.4,54.8,45.5,94,67,30,29.83,29.77,4,0,4,0.06
2013-8-25,95.7,73.6,57.9,55.6,50.0,43.8,82,49,23,30.71,26.58,16,0,16,0.00
2013-8-26,86.2,70.3,61.7,58.9,51.8,45.9,75,54,28,30.42,29.74,16,0,16,0.00
2013-8-27,85.1,69.0,60.4,59.0,54.5,50.2,92,62,36,29.85,29.71,16,0,16,0.10
2013-8-28,86.0,68.5,60.8,66.0,59.3,55.8,95,75,42,29.83,29.74,6,0,6,0.17
2013-8-29,70.7,63.8,1.0,66.0,60.4,-0.3,95,89,73,29.85,29.77,9,0,9,0.57
2013-8-30,76.6,65.1,58.3,72.2,57.7,53.4,95,79,49,30.06,29.85,5,0,5,0.06
2013-8-31,95.0,69.9,54.0,66.2,53.3,45.6,91,61,24,30.03,29.74,1,0,1,0.01
2013-9-1,99.5,73.5,56.5,67.7,55.2,48.4,92,58,22,29.80,29.68,0,0,0,0.00
2013-9-2,89.8,69.4,60.6,65.3,57.3,51.2,91,68,30,29.85,29.74,2,0,2,0.01
2013-9-3,76.8,65.4,59.7,63.9,58.5,53.9,95,80,52,29.94,29.85,0,0,0,0.11
2013-9-4,84.7,66.2,56.8,63.2,57.2,47.9,94,75,36,29.97,29.91,0,0,0,0.00
2013-9-5,73.2,63.9,57.9,64.2,59.3,55.9,95,86,62,29.97,29.83,5,0,5,0.18
2013-9-6,76.6,66.2,58.1,63.5,59.0,56.5,95,79,54,30.00,29.80,4,0,4,0.00
2013-9-7,91.6,68.6,61.0,66.8,58.0,51.1,91,71,34,30.00,29.94,1,0,1,0.01
2013-9-8,85.3,67.5,57.4,69.7,58.4,54.3,94,75,40,30.00,29.91,0,0,0,0.00
2013-9-9,94.8,70.6,56.1,70.9,56.9,53.4,93,67,30,29.97,29.88,0,0,0,0.00
2013-9-10,96.3,72.3,56.5,71.7,55.9,48.9,93,61,27,29.91,29.85,0,0,0,0.00
2013-9-11,106.0,78.4,57.6,70.6,56.1,49.3,91,53,20,29.88,29.80,0,0,0,0.00
2013-9-12,106.0,76.1,60.3,68.0,56.8,51.8,87,56,21,29.88,29.77,0,0,0,0.00
2013-9-13,88.7,64.7,-13.4,67.9,51.2,-20.6,88,65,31,29.85,29.77,1,0,1,0.00
2013-9-14,74.5,65.3,59.7,59.9,57.0,55.4,88,75,56,29.83,27.17,0,0,0,0.00
2013-9-15,70.3,62.9,60.3,61.7,58.0,54.4,93,85,67,29.71,29.62,4,0,4,0.20
2013-9-16,72.9,62.9,57.6,60.6,56.9,54.2,95,81,59,29.80,29.68,55,0,55,0.50
2013-9-17,78.1,62.0,55.8,57.9,52.4,48.2,91,73,42,29.83,27.76,0,0,0,0.03
2013-9-18,91.2,63.0,53.8,66.5,49.8,40.0,87,66,24,29.97,27.76,4,0,4,0.00
2013-9-19,89.1,67.5,55.8,51.1,45.5,33.6,82,51,20,29.97,29.65,8,1,7,0.00
2013-9-20,85.3,61.9,52.7,55.7,49.3,45.1,91,67,29,29.68,26.58,15,0,15,0.23
2013-9-21,86.5,62.8,57.4,68.8,53.5,47.7,93,74,34,29.62,29.53,3,0,3,0.10
2013-9-22,64.9,55.4,53.1,55.3,52.6,51.1,95,90,72,29.56,29.41,50,0,50,0.79
2013-9-23,82.0,57.9,49.6,59.3,48.6,24.2,93,75,30,29.85,29.56,0,0,0,0.09
2013-9-24,68.0,54.3,-2.7,49.2,44.6,-18.9,92,72,41,29.85,28.05,0,0,0,0.01
2013-9-25,80.8,57.5,44.2,60.0,46.3,39.8,92,69,32,29.91,29.77,0,0,0,0.00
2013-9-26,85.6,56.1,44.1,61.9,44.2,34.3,92,69,26,30.03,29.91,0,0,0,0.00
2013-9-27,59.5,51.5,49.5,52.7,47.6,0.3,93,87,12,30.00,29.71,0,0,0,0.23
2013-9-28,57.4,52.1,49.5,54.1,50.4,47.2,95,94,79,29.71,29.18,15,0,15,1.05
2013-9-29,56.7,51.4,48.6,52.8,49.0,46.3,95,92,78,30.42,29.03,10,1,10,0.58
2013-9-30,62.6,50.5,46.8,57.4,46.3,43.5,95,86,68,31.01,29.18,1,0,1,0.17
2013-10-1,63.0,49.2,45.7,52.2,45.3,39.7,95,87,47,30.00,29.77,6,0,6,0.52
2013-10-2,60.3,46.9,41.9,51.9,44.9,40.6,95,93,73,30.09,29.97,7,0,7,0.27
2013-10-3,77.7,49.9,37.2,61.5,43.0,35.9,95,80,33,30.39,30.09,0,0,0,0.00
2013-10-4,74.8,52.2,39.7,54.4,44.0,38.4,95,76,36,30.39,30.27,1,0,0,0.01
2013-10-5,68.4,58.4,53.1,52.0,47.1,17.4,87,67,23,30.27,30.06,9,0,9,0.00
2013-10-6,89.6,61.7,47.3,66.6,48.1,41.7,94,66,27,30.06,29.71,50,1,50,0.03
2013-10-7,79.9,56.4,51.8,65.0,49.0,41.0,93,78,38,30.71,27.76,0,0,0,0.16
2013-10-8,80.1,53.1,45.0,53.4,42.7,36.2,92,69,27,30.12,27.46,0,0,0,0.01
2013-10-9,73.0,51.2,40.1,58.9,40.4,37.3,93,69,37,30.06,29.85,0,0,0,0.00
2013-10-10,62.4,51.1,43.3,46.4,42.7,39.7,90,74,45,29.97,29.83,0,0,0,0.02
2013-10-11,68.9,50.1,40.3,58.1,42.9,38.1,94,78,56,30.06,29.97,0,0,0,0.00
2013-10-12,73.8,50.5,42.6,59.5,43.4,38.5,92,78,38,30.12,29.97,0,0,0,0.01
2013-10-13,70.3,48.0,39.7,62.7,42.0,37.3,94,81,41,30.30,30.12,0,0,0,0.00
2013-10-14,73.2,47.5,37.9,62.9,42.3,36.4,95,83,57,30.36,30.30,0,0,0,0.00
2013-10-15,68.4,47.8,41.2,63.3,44.2,39.6,95,88,59,30.42,29.53,16,0,16,0.00
2013-10-16,66.0,48.5,41.0,62.0,44.9,39.7,95,88,70,30.12,30.06,0,0,0,0.00
2013-10-17,53.8,46.8,39.6,49.7,44.4,38.2,95,92,79,30.21,30.12,0,0,0,0.00
2013-10-18,57.6,47.1,40.8,50.5,44.3,39.5,95,90,61,30.18,30.06,0,0,0,0.00
2013-10-19,62.2,49.0,45.0,48.4,45.4,43.6,95,88,60,30.12,28.64,0,0,0,0.00
2013-10-20,62.4,50.4,47.3,51.1,45.6,43.1,93,84,65,30.12,30.06,16,0,16,0.00
2013-10-21,61.5,49.9,47.1,49.2,46.3,44.0,95,88,64,30.09,30.03,0,0,0,0.01
2013-10-22,57.0,47.7,44.2,49.8,45.3,42.9,95,92,71,30.06,29.94,0,0,0,0.00
2013-10-23,62.4,46.5,39.7,51.6,44.3,38.4,95,92,64,29.97,29.88,0,0,0,0.00
2013-10-24,52.9,45.9,39.4,49.8,44.0,38.1,95,93,85,30.03,29.94,0,0,0,0.00
2013-10-25,60.1,48.8,43.9,50.2,45.4,42.5,95,88,67,30.24,27.17,16,0,16,0.00
2013-10-26,60.6,51.5,46.8,47.1,45.1,42.7,91,79,60,30.27,30.06,0,0,0,0.00
2013-10-27,85.5,51.5,46.9,83.2,44.3,29.7,94,78,42,30.06,29.85,36,0,36,0.10
2013-10-28,55.9,47.9,42.1,37.8,31.3,23.7,78,54,30,29.97,29.85,36,1,36,0.00
2013-10-29,53.1,42.9,33.4,40.6,33.4,28.5,92,71,40,29.94,29.88,0,0,0,0.00
2013-10-30,58.6,47.4,37.4,45.5,39.1,33.6,94,75,43,30.03,29.94,7,0,7,0.14
2013-10-31,51.4,48.9,46.6,48.5,46.9,45.2,95,93,88,30.15,29.97,36,0,36,0.26
2013-11-1,57.7,50.9,48.9,50.7,48.0,2.0,95,91,14,30.18,29.74,6,0,6,0.33
2013-11-2,49.5,45.9,42.1,48.1,44.6,40.8,95,95,95,29.77,29.32,9,0,9,1.30
2013-11-3,46.2,39.1,33.6,44.9,36.4,31.6,95,90,71,30.03,29.77,36,0,36,0.01
2013-11-4,49.6,40.6,31.5,35.8,31.7,28.6,92,72,48,30.12,30.00,5,0,5,0.00
2013-11-5,44.8,41.8,39.0,42.6,37.8,30.1,93,86,67,30.18,29.94,7,0,7,0.04
2013-11-6,52.5,46.0,40.8,41.3,38.8,37.1,92,77,61,30.24,29.91,9,0,9,0.14
2013-11-7,48.0,46.9,44.8,46.5,43.0,37.1,95,87,69,29.91,29.56,7,0,7,0.58
2013-11-8,53.4,47.1,43.7,47.3,42.5,40.1,95,85,64,30.06,29.83,36,0,36,0.06
2013-11-9,54.3,47.0,43.5,45.7,42.1,38.4,95,83,66,30.06,30.00,8,0,8,0.03
2013-11-10,52.7,46.0,39.9,44.0,40.2,37.5,93,81,62,30.09,30.03,0,0,0,0.00
2013-11-11,57.0,48.9,44.8,42.9,40.0,35.3,86,73,47,30.09,29.91,0,0,0,0.00
2013-11-12,60.1,51.7,47.3,50.6,46.3,42.4,91,82,66,30.21,29.88,6,0,6,0.18
2013-11-13,60.4,51.5,9.3,49.5,46.1,1.2,94,83,55,30.30,30.21,4,0,4,0.01
2013-11-14,62.8,48.2,43.7,49.7,43.1,37.2,93,83,59,30.21,29.94,15,0,15,0.03
2013-11-15,55.4,43.1,38.5,43.1,38.5,3.3,95,86,19,29.94,29.18,9,0,9,0.92
2013-11-16,48.0,41.4,36.1,42.1,34.9,31.3,95,79,61,29.62,29.18,5,0,5,0.00
2013-11-17,58.3,44.8,35.8,43.6,38.3,32.6,93,79,58,29.77,29.62,4,0,4,0.00
2013-11-18,56.7,44.2,42.1,45.1,41.0,39.6,94,88,63,29.77,28.05,15,0,15,0.47
2013-11-19,51.4,39.6,29.7,40.8,31.1,17.5,95,74,38,30.00,29.47,8,1,8,0.15
2013-11-20,37.9,31.0,26.8,29.6,25.5,22.7,88,80,57,30.44,30.00,0,0,0,0.00
2013-11-21,45.0,30.6,24.3,29.7,25.5,20.7,89,82,50,30.59,30.42,0,0,0,0.00
2013-11-22,46.0,33.6,26.1,34.5,27.5,13.8,92,80,47,30.59,30.39,0,0,0,0.00
2013-11-23,53.1,36.2,28.0,40.8,31.5,24.9,93,84,56,30.39,28.05,0,0,2,0.00
2013-11-24,51.1,38.7,30.9,43.7,35.0,29.1,95,87,57,30.18,30.09,0,0,2,0.00
2013-11-25,54.7,41.7,34.3,42.2,36.3,31.8,93,82,53,30.24,30.18,0,0,0,0.00
2013-11-26,55.9,41.9,32.5,42.7,35.3,12.4,94,78,58,30.18,30.00,3,0,3,0.00
2013-11-27,56.5,47.0,41.7,40.3,36.9,34.0,82,69,54,30.00,26.28,15,0,15,0.00
2013-11-28,45.7,45.7,45.7,37.5,37.5,37.5,73,73,73,29.97,29.94,0,0,0,0.00
2013-11-29,57.7,47.3,45.0,44.8,42.6,37.5,92,84,62,30.21,29.97,4,0,4,0.24
2013-11-30,45.7,44.4,42.6,44.3,43.0,41.3,95,95,92,30.24,29.94,4,0,4,0.96
2013-12-1,59.9,45.9,40.3,49.7,41.9,31.0,95,87,59,29.94,27.46,15,0,15,0.67
2013-12-2,54.0,38.4,30.0,32.3,28.3,21.1,84,67,50,30.06,27.17,8,0,8,0.00
2013-12-3,50.4,30.8,14.2,23.7,17.2,5.5,69,57,35,30.27,30.06,0,0,0,0.00
2013-12-4,38.5,25.9,20.7,18.4,14.7,9.1,81,64,45,31.01,30.27,1,0,1,0.00
2013-12-5,35.6,27.2,21.0,14.9,11.9,6.9,70,53,40,30.27,30.15,2,0,2,0.00
2013-12-6,31.5,24.4,16.5,12.8,-3.4,-14.0,70,32,20,30.27,30.15,14,2,14,0.00
2013-12-7,25.9,19.6,11.8,8.4,-3.7,-16.2,57,37,20,30.33,30.27,5,0,5,0.00
2013-12-8,34.7,25.1,21.6,7.8,3.2,-0.4,41,38,32,30.48,30.33,4,0,4,0.00
2013-12-9,26.2,26.2,26.2,4.0,4.0,4.0,38,38,38,30.48,30.39,0,0,0,0.00
2013-12-10,40.5,26.3,26.2,33.0,4.3,4.0,76,38,38,30.42,30.36,0,0,0,0.11
2013-12-11,43.2,32.8,26.2,35.1,24.7,4.0,90,76,38,30.36,30.09,0,0,0,0.02
2013-12-12,42.1,35.1,35.1,32.4,32.4,31.5,90,90,66,30.09,29.94,5,0,5,0.37
2013-12-13,49.1,33.8,32.0,42.5,1.4,-31.6,90,49,5,30.33,30.03,1,0,0,0.25
2013-12-14,32.0,32.0,32.0,-31.6,-31.6,-31.6,5,5,5,30.33,30.21,8,0,8,0.02
2013-12-15,54.9,32.3,32.0,46.4,-30.7,-31.6,73,6,5,30.33,30.18,0,0,0,0.03
2013-12-16,49.5,33.9,32.0,39.3,-20.9,-31.6,68,15,5,30.36,30.33,0,0,0,0.00
2013-12-17,42.8,39.1,32.0,36.7,34.8,-31.6,94,87,5,30.39,29.97,0,0,0,0.03
2013-12-18,38.3,37.3,29.5,36.7,35.0,22.5,94,91,74,30.18,29.91,0,0,0,0.00
2013-12-19,50.7,33.3,27.3,32.7,21.8,18.1,78,63,48,30.27,30.12,0,0,0,0.00
2013-12-20,43.5,31.8,31.1,32.4,29.3,25.6,93,91,59,30.12,29.65,0,0,0,0.28
2013-12-21,43.7,32.1,31.8,33.1,30.1,30.0,93,92,66,30.42,29.80,15,0,15,0.76
2013-12-22,44.8,37.7,31.8,40.0,36.1,30.0,95,94,70,30.21,29.53,0,0,0,0.07
2013-12-23,55.4,43.3,36.5,45.1,41.1,33.4,95,92,63,30.39,29.97,13,1,13,0.00
2013-12-24,48.4,39.7,20.8,38.2,35.7,12.6,93,86,64,30.50,30.39,0,0,0,0.00
2013-12-25,53.2,40.8,36.0,39.3,33.3,32.4,94,76,59,30.48,30.33,0,0,0,0.06
2013-12-26,56.5,44.7,6.8,48.3,32.5,-2.5,74,62,62,30.33,30.12,15,0,15,0.14
2013-12-27,49.6,43.4,37.6,39.7,33.9,32.4,95,70,62,30.30,29.97,0,0,0,0.21
2013-12-28,56.3,42.5,38.1,44.6,38.6,19.7,95,86,56,31.01,26.28,16,0,16,0.00
2013-12-29,52.5,41.1,38.8,43.8,38.5,14.7,95,91,33,30.42,30.24,16,0,16,0.10
2013-12-30,56.8,44.1,40.5,42.5,39.2,34.1,92,83,62,30.24,26.58,16,0,16,0.00
2013-12-31,57.6,44.4,42.3,45.9,41.2,39.3,93,89,64,30.30,30.06,16,0,16,0.11
2014-1-1,58.6,43.4,39.4,46.5,39.6,37.2,95,87,63,30.33,30.18,16,0,16,0.01
2014-1-2,53.8,43.1,42.4,42.4,40.9,40.4,95,92,67,30.18,30.06,16,0,16,0.17